Huvudsida
METAR-TAF:

METAR-TAF

Flygplatser :

Sandane flygplats. Anda

Sandane, Norge

latitud: 61-50N, longitud: 006-07E, höjd: 6 m

Aktuellt väderrapport

Denna rapport gjordes för 33 minuter sedan, klockan 12:20 UTC
Vind 15 kt från syd, varierande mellan syd/sydost och sydväst
Temperatur 16°C
Fuktighet 59%
Tryck 1000 hPa
Sikt 10 km eller mer
Få moln på en höjd av 3400 ft
Brutna moln på en höjd av 5000 ft
lätta regnskurar

METAR: ENSD 181220Z 19015KT 150V230 9999 -SHRA FEW034 BKN050 16/08 Q1000 RMK WIND 1138FT VRB10G26KT

Tid: 14:53 (12:53 UTC)


TAF: saknas

Aktuella väderrapporter och prognoser från 4000 flygplatser (METAR- och TAF-rapporter).

De tillgängliga stationerna syns som gula och röda prickar på kartan.

För musen över prickarna för att se namnen på stationerna.

Klicka sedan för att få väderrapporter och prognoser.

För att ändra kartan: Klicka på de gröna knapparna med ett svart kors på för att zooma in; den gröna knappen med ett streck på för att zooma ut; eller på de gröna pilarna för angränsande kartor.


METAR-TAF: